createdAt,value
2023-04-18T00:00:58.714Z,28.7764
2023-04-18T00:02:02.663Z,28.8371
2023-04-18T00:03:06.802Z,28.7468
2023-04-18T00:04:11.045Z,28.8846
2023-04-18T00:05:15.275Z,28.8972
2023-04-18T00:06:19.172Z,28.8701
2023-04-18T00:07:23.086Z,28.7773
2023-04-18T00:08:26.981Z,28.6626
2023-04-18T00:09:30.925Z,28.8578
2023-04-18T00:10:35.049Z,28.9678
2023-04-18T00:11:38.956Z,28.9948
2023-04-18T00:12:43.312Z,28.8253
2023-04-18T00:13:47.241Z,28.8296
2023-04-18T00:14:51.124Z,28.7579
2023-04-18T00:15:55.054Z,28.8569
2023-04-18T00:16:58.988Z,28.8924
2023-04-18T00:18:03.328Z,28.9477
2023-04-18T00:19:07.280Z,28.9263
2023-04-18T00:20:11.450Z,28.8040
2023-04-18T00:21:15.331Z,28.9856
2023-04-18T00:22:19.247Z,29.0251
2023-04-18T00:23:23.155Z,28.9415
2023-04-18T00:24:27.054Z,28.9013
2023-04-18T00:25:30.972Z,28.9174
2023-04-18T00:26:34.872Z,28.8891
2023-04-18T00:27:39.049Z,29.0290
2023-04-18T00:28:42.926Z,29.0427
2023-04-18T00:29:47.072Z,28.9282
2023-04-18T00:30:50.988Z,28.9431
2023-04-18T00:31:54.874Z,28.9810
2023-04-18T00:32:58.807Z,28.9238
2023-04-18T00:34:02.716Z,28.8640
2023-04-18T00:35:06.947Z,28.8612
2023-04-18T00:36:10.849Z,28.9865
2023-04-18T00:37:14.771Z,28.9878
2023-04-18T00:38:18.720Z,28.9828
2023-04-18T00:39:22.617Z,28.6940
2023-04-18T00:40:26.781Z,28.9043
2023-04-18T00:41:30.709Z,28.8757
2023-04-18T00:42:34.913Z,29.0526
2023-04-18T00:43:38.989Z,28.9843
2023-04-18T00:44:42.899Z,28.9408
2023-04-18T00:45:46.828Z,28.9092
2023-04-18T00:46:50.722Z,28.7689
2023-04-18T00:47:54.656Z,28.8817
2023-04-18T00:48:58.586Z,28.9066
2023-04-18T00:50:02.492Z,28.9261
2023-04-18T00:51:06.400Z,28.9233
2023-04-18T00:52:10.305Z,28.9703
2023-04-18T00:53:14.215Z,28.9266
2023-04-18T00:54:18.125Z,29.0094
2023-04-18T00:55:22.247Z,28.8925
2023-04-18T00:56:26.167Z,28.9656
2023-04-18T00:57:30.286Z,28.9988
2023-04-18T00:58:34.196Z,28.9134
2023-04-18T00:59:38.107Z,28.7211
2023-04-18T01:00:42.017Z,28.9307
2023-04-18T01:01:45.926Z,28.9747
2023-04-18T01:02:50.302Z,28.9351
2023-04-18T01:03:54.318Z,28.9817
2023-04-18T01:04:58.520Z,28.9759
2023-04-18T01:06:02.413Z,28.9458
2023-04-18T01:07:06.369Z,28.8902
2023-04-18T01:08:10.238Z,28.8862
2023-04-18T01:09:14.161Z,28.9571
2023-04-18T01:10:18.384Z,28.8863
2023-04-18T01:11:22.275Z,29.0137
2023-04-18T01:12:26.186Z,28.8072
2023-04-18T01:13:30.081Z,28.9375
2023-04-18T01:14:33.987Z,28.9371
2023-04-18T01:15:37.948Z,29.0499
2023-04-18T01:16:41.814Z,29.1161
2023-04-18T01:17:45.729Z,29.0476
2023-04-18T01:18:49.657Z,29.0609
2023-04-18T01:19:53.817Z,29.1135
2023-04-18T01:20:57.730Z,28.9661
2023-04-18T01:22:01.622Z,28.9258
2023-04-18T01:23:05.528Z,28.9461
2023-04-18T01:24:09.429Z,29.0180
2023-04-18T01:25:13.334Z,28.8928
2023-04-18T01:26:17.269Z,28.8237
2023-04-18T01:27:21.442Z,28.9478
2023-04-18T01:28:25.337Z,29.1059
2023-04-18T01:29:29.480Z,29.0620
2023-04-18T01:30:33.387Z,29.0143
2023-04-18T01:31:37.346Z,28.9431
2023-04-18T01:32:41.293Z,29.0606
2023-04-18T01:33:45.187Z,29.0674
2023-04-18T01:34:49.114Z,29.0882
2023-04-18T01:35:53.029Z,28.8857
2023-04-18T01:36:56.922Z,28.9307
2023-04-18T01:38:00.827Z,28.9045
2023-04-18T01:39:04.741Z,28.9224
2023-04-18T01:40:08.979Z,29.0251
2023-04-18T01:41:12.859Z,29.0797
2023-04-18T01:42:16.773Z,28.9906
2023-04-18T01:43:20.684Z,29.0905
2023-04-18T01:44:24.594Z,28.9879
2023-04-18T01:45:28.511Z,29.0718
2023-04-18T01:46:32.473Z,28.9491
2023-04-18T01:47:36.558Z,29.0195
2023-04-18T01:48:40.483Z,29.0877
2023-04-18T01:49:44.374Z,28.9667
2023-04-18T01:50:48.287Z,29.1012
2023-04-18T01:51:52.181Z,29.1237
2023-04-18T01:52:56.107Z,28.8750
2023-04-18T01:54:00.020Z,28.9847
2023-04-18T01:55:04.146Z,29.0553
2023-04-18T01:56:08.070Z,29.0225
2023-04-18T01:57:12.005Z,29.0524
2023-04-18T01:58:15.909Z,29.0039
2023-04-18T01:59:19.810Z,29.0831
2023-04-18T02:00:23.934Z,29.1389
2023-04-18T02:01:27.888Z,29.1865
2023-04-18T02:02:32.087Z,29.1097
2023-04-18T02:03:36.259Z,29.0241
2023-04-18T02:04:40.236Z,28.9478
2023-04-18T02:05:44.171Z,28.8342
2023-04-18T02:06:48.079Z,28.9148
2023-04-18T02:07:52.008Z,29.0401
2023-04-18T02:08:55.934Z,28.9195
2023-04-18T02:10:00.071Z,28.8933
2023-04-18T02:11:03.934Z,29.0328
2023-04-18T02:12:08.084Z,28.9162
2023-04-18T02:13:11.989Z,28.9907
2023-04-18T02:14:15.928Z,28.9735
2023-04-18T02:15:19.888Z,29.0225
2023-04-18T02:16:23.831Z,29.1135
2023-04-18T02:17:27.740Z,28.9005
2023-04-18T02:18:31.607Z,29.0278
2023-04-18T02:19:35.765Z,29.0637
2023-04-18T02:20:39.651Z,28.9703
2023-04-18T02:21:43.557Z,29.0815
2023-04-18T02:22:47.466Z,29.1969
2023-04-18T02:23:51.383Z,29.1650
2023-04-18T02:24:55.532Z,29.0175
2023-04-18T02:25:59.436Z,28.8452
2023-04-18T02:27:03.329Z,29.0963
2023-04-18T02:28:07.229Z,28.9946
2023-04-18T02:29:11.134Z,29.0234
2023-04-18T02:30:15.029Z,29.0494
2023-04-18T02:31:18.931Z,28.9785
2023-04-18T02:32:22.850Z,28.9396
2023-04-18T02:33:26.745Z,28.9867
2023-04-18T02:34:30.956Z,28.8204
2023-04-18T02:35:34.829Z,29.0485
2023-04-18T02:36:38.711Z,29.0572
2023-04-18T02:37:42.608Z,29.0590
2023-04-18T02:38:46.493Z,29.0347
2023-04-18T02:39:50.396Z,28.9539
2023-04-18T02:40:54.308Z,29.0005
2023-04-18T02:41:58.436Z,29.0635
2023-04-18T02:43:02.332Z,28.9752
2023-04-18T02:44:06.237Z,28.8821
2023-04-18T02:45:10.377Z,29.0516
2023-04-18T02:46:14.323Z,29.0379
2023-04-18T02:47:18.207Z,28.9810
2023-04-18T02:48:22.114Z,29.0073
2023-04-18T02:49:25.979Z,28.9961
2023-04-18T02:50:29.887Z,29.1484
2023-04-18T02:51:33.814Z,29.0471
2023-04-18T02:52:37.722Z,28.9911
2023-04-18T02:53:41.658Z,29.0468
2023-04-18T02:54:45.741Z,29.0380
2023-04-18T02:55:49.626Z,29.0044
2023-04-18T02:56:53.740Z,28.9682
2023-04-18T02:57:57.624Z,28.9197
2023-04-18T02:59:01.519Z,28.8967
2023-04-18T03:00:05.381Z,28.8612
2023-04-18T03:01:09.313Z,28.9969
2023-04-18T03:02:13.466Z,29.0298
2023-04-18T03:03:17.391Z,29.0365
2023-04-18T03:04:21.310Z,29.1660
2023-04-18T03:05:25.187Z,29.1134
2023-04-18T03:06:29.074Z,29.0616
2023-04-18T03:07:33.009Z,28.8844
2023-04-18T03:08:36.920Z,29.1126
2023-04-18T03:09:41.040Z,29.1119
2023-04-18T03:10:44.920Z,29.1950
2023-04-18T03:11:48.914Z,29.1087
2023-04-18T03:12:52.804Z,29.1888
2023-04-18T03:13:56.722Z,29.2426
2023-04-18T03:15:00.624Z,29.2706
2023-04-18T03:16:04.629Z,29.2712
2023-04-18T03:17:08.761Z,29.2923
2023-04-18T03:18:12.681Z,29.2702
2023-04-18T03:19:16.831Z,29.2465
2023-04-18T03:20:20.733Z,29.2583
2023-04-18T03:21:24.624Z,29.2636
2023-04-18T03:22:28.525Z,29.3761
2023-04-18T03:23:32.407Z,29.4594
2023-04-18T03:24:36.521Z,29.4973
2023-04-18T03:25:40.402Z,29.4858
2023-04-18T03:26:44.524Z,29.5148
2023-04-18T03:27:48.407Z,29.5410
2023-04-18T03:28:52.301Z,29.5138
2023-04-18T03:29:56.185Z,29.5361
2023-04-18T03:31:00.144Z,29.5162
2023-04-18T03:32:04.055Z,29.5044
2023-04-18T03:33:07.953Z,29.5286
2023-04-18T03:34:12.120Z,29.4969
2023-04-18T03:35:16.217Z,29.4725
2023-04-18T03:36:20.138Z,29.4603
2023-04-18T03:37:24.046Z,29.4210
2023-04-18T03:38:27.944Z,29.4472
2023-04-18T03:39:32.078Z,29.3739
2023-04-18T03:40:35.966Z,29.3720
2023-04-18T03:41:39.835Z,29.4037
2023-04-18T03:42:43.724Z,29.4250
2023-04-18T03:43:47.594Z,29.4024
2023-04-18T03:44:51.498Z,29.4060
2023-04-18T03:45:55.411Z,29.2585
2023-04-18T03:46:59.614Z,29.2881
2023-04-18T03:48:03.502Z,29.3460
2023-04-18T03:49:07.560Z,29.3411
2023-04-18T03:50:11.439Z,29.3387
2023-04-18T03:51:15.316Z,29.3841
2023-04-18T03:52:19.198Z,29.3429
2023-04-18T03:53:23.081Z,29.3742
2023-04-18T03:54:27.281Z,29.3649
2023-04-18T03:55:31.172Z,29.2231
2023-04-18T03:56:35.793Z,29.2276
2023-04-18T03:57:41.275Z,29.2689
2023-04-18T03:58:39.983Z,29.2883
2023-04-18T03:59:45.567Z,29.2652
2023-04-18T04:00:45.274Z,29.2546
2023-04-18T04:01:49.488Z,29.2202
2023-04-18T04:02:53.520Z,29.1845
2023-04-18T04:03:57.559Z,29.1829
2023-04-18T04:05:01.519Z,29.1964
2023-04-18T04:06:05.445Z,29.1342
2023-04-18T04:07:09.571Z,29.0841
2023-04-18T04:08:13.475Z,29.0674
2023-04-18T04:09:17.374Z,29.0232
2023-04-18T04:10:21.282Z,28.9979
2023-04-18T04:11:25.197Z,28.9468
2023-04-18T04:12:29.156Z,28.9654
2023-04-18T04:13:33.036Z,29.0221
2023-04-18T04:14:37.035Z,29.1715
2023-04-18T04:15:40.928Z,29.2208
2023-04-18T04:16:45.027Z,29.3217
2023-04-18T04:17:48.976Z,29.3461
2023-04-18T04:18:52.865Z,29.4661
2023-04-18T04:19:56.748Z,29.5294
2023-04-18T04:21:00.660Z,29.4361
2023-04-18T04:22:04.558Z,29.5268
2023-04-18T04:23:08.467Z,29.5807
2023-04-18T04:24:12.534Z,29.6402
2023-04-18T04:25:16.546Z,29.7316
2023-04-18T04:26:20.460Z,29.4905
2023-04-18T04:27:24.383Z,29.6575
2023-04-18T04:28:28.272Z,29.7201
2023-04-18T04:29:32.423Z,29.6819
2023-04-18T04:30:36.313Z,29.6516
2023-04-18T04:31:40.472Z,29.8182
2023-04-18T04:32:44.375Z,29.8878
2023-04-18T04:33:48.242Z,29.9102
2023-04-18T04:34:52.121Z,29.9904
2023-04-18T04:35:56.024Z,30.0304
2023-04-18T04:36:59.914Z,30.0041
2023-04-18T04:38:03.813Z,30.1047
2023-04-18T04:39:07.938Z,30.1765
2023-04-18T04:40:11.847Z,30.1328
2023-04-18T04:41:15.709Z,30.1362
2023-04-18T04:42:19.588Z,30.1432
2023-04-18T04:43:23.488Z,30.1058
2023-04-18T04:44:27.700Z,30.1018
2023-04-18T04:45:31.612Z,30.1551
2023-04-18T04:46:35.773Z,30.1971
2023-04-18T04:47:39.739Z,30.1844
2023-04-18T04:48:43.649Z,30.2223
2023-04-18T04:49:47.493Z,30.2986
2023-04-18T04:50:51.376Z,30.3115
2023-04-18T04:51:55.285Z,30.3149
2023-04-18T04:52:59.185Z,30.3195
2023-04-18T04:54:03.109Z,30.3319
2023-04-18T04:55:06.988Z,30.3312
2023-04-18T04:56:10.859Z,30.3401
2023-04-18T04:57:14.768Z,30.3416
2023-04-18T04:58:18.685Z,30.3701
2023-04-18T04:59:22.989Z,30.4145
2023-04-18T05:00:26.910Z,30.3624
2023-04-18T05:01:31.061Z,30.3931
2023-04-18T05:02:35.050Z,30.3519
2023-04-18T05:03:39.438Z,30.3452
2023-04-18T05:04:43.431Z,30.3642
2023-04-18T05:05:47.275Z,30.4379
2023-04-18T05:06:51.264Z,30.4649
2023-04-18T05:07:55.153Z,30.3956
2023-04-18T05:08:59.043Z,30.3651
2023-04-18T05:10:02.969Z,30.4485
2023-04-18T05:11:06.863Z,30.4465
2023-04-18T05:12:11.012Z,30.4558
2023-04-18T05:13:14.915Z,30.4082
2023-04-18T05:14:19.025Z,30.3385
2023-04-18T05:15:22.914Z,30.0016
2023-04-18T05:16:26.872Z,29.6733
2023-04-18T05:17:30.789Z,30.0454
2023-04-18T05:18:35.092Z,30.2284
2023-04-18T05:19:39.019Z,30.2581
2023-04-18T05:20:42.901Z,30.1249
2023-04-18T05:21:46.779Z,30.1778
2023-04-18T05:22:50.686Z,30.2480
2023-04-18T05:23:54.867Z,30.2237
2023-04-18T05:24:58.749Z,30.2532
2023-04-18T05:26:02.678Z,30.2643
2023-04-18T05:27:06.592Z,30.3879
2023-04-18T05:28:10.471Z,30.3715
2023-04-18T05:29:14.347Z,30.4913
2023-04-18T05:30:18.264Z,30.4377
2023-04-18T05:31:22.201Z,30.2728
2023-04-18T05:32:26.057Z,30.4338
2023-04-18T05:33:29.953Z,30.4560
2023-04-18T05:34:33.839Z,30.5482
2023-04-18T05:35:37.745Z,30.5748
2023-04-18T05:36:41.658Z,30.5932
2023-04-18T05:37:45.541Z,30.6366
2023-04-18T05:38:49.456Z,30.6691
2023-04-18T05:39:53.343Z,30.6407
2023-04-18T05:40:57.221Z,30.5489
2023-04-18T05:42:01.367Z,30.5280
2023-04-18T05:43:05.269Z,30.5108
2023-04-18T05:44:09.186Z,30.4188
2023-04-18T05:45:13.086Z,30.4284
2023-04-18T05:46:17.300Z,30.5269
2023-04-18T05:47:21.275Z,30.4568
2023-04-18T05:48:25.188Z,30.5365
2023-04-18T05:49:29.063Z,30.4812
2023-04-18T05:50:32.958Z,30.4553
2023-04-18T05:51:37.083Z,30.4794
2023-04-18T05:52:40.984Z,30.4904
2023-04-18T05:53:44.855Z,30.4951
2023-04-18T05:54:48.757Z,30.5018
2023-04-18T05:55:52.635Z,30.5286
2023-04-18T05:56:56.528Z,30.4656
2023-04-18T05:58:00.437Z,30.5318
2023-04-18T05:59:04.587Z,30.4019
2023-04-18T06:00:08.476Z,30.4390
2023-04-18T06:01:12.407Z,30.4760
2023-04-18T06:02:16.379Z,30.3727
2023-04-18T06:03:20.600Z,30.5243
2023-04-18T06:04:24.670Z,30.5369
2023-04-18T06:05:28.899Z,30.5453
2023-04-18T06:06:33.239Z,30.5976
2023-04-18T06:07:37.132Z,30.6065
2023-04-18T06:08:41.055Z,30.5278
2023-04-18T06:09:44.970Z,30.4389
2023-04-18T06:10:48.885Z,30.5674
2023-04-18T06:11:52.828Z,30.5740
2023-04-18T06:12:56.704Z,30.6525
2023-04-18T06:14:00.863Z,30.7087
2023-04-18T06:15:04.762Z,30.7627
2023-04-18T06:16:08.878Z,30.7270
2023-04-18T06:17:12.859Z,30.7131
2023-04-18T06:18:16.738Z,30.6825
2023-04-18T06:19:20.651Z,30.7781
2023-04-18T06:20:24.544Z,30.6808
2023-04-18T06:21:28.436Z,30.2938
2023-04-18T06:22:32.326Z,30.6234
2023-04-18T06:23:36.454Z,30.7016
2023-04-18T06:24:40.345Z,30.6867
2023-04-18T06:25:44.225Z,30.7020
2023-04-18T06:26:48.391Z,30.6571
2023-04-18T06:27:52.270Z,30.6749
2023-04-18T06:28:56.189Z,30.7419
2023-04-18T06:30:00.165Z,30.7161
2023-04-18T06:31:04.081Z,30.9071
2023-04-18T06:32:07.964Z,31.1888
2023-04-18T06:33:11.821Z,31.4823
2023-04-18T06:34:15.905Z,31.5156
2023-04-18T06:35:19.968Z,31.4837
2023-04-18T06:36:24.102Z,31.1101
2023-04-18T06:37:27.995Z,31.1410
2023-04-18T06:38:31.875Z,31.2185
2023-04-18T06:39:35.799Z,31.1774
2023-04-18T06:40:39.738Z,31.1859
2023-04-18T06:41:43.649Z,31.3494
2023-04-18T06:42:47.563Z,31.5084
2023-04-18T06:44:02.851Z,31.4213
2023-04-18T06:44:55.947Z,31.5272
2023-04-18T06:45:59.944Z,31.1582
2023-04-18T06:47:03.845Z,31.1049
2023-04-18T06:48:07.820Z,31.4025
2023-04-18T06:49:11.694Z,31.4796
2023-04-18T06:50:15.579Z,31.4721
2023-04-18T06:51:19.483Z,31.2777
2023-04-18T06:52:23.948Z,30.7640
2023-04-18T06:53:27.818Z,31.1448
2023-04-18T06:54:31.718Z,31.2173
2023-04-18T06:55:35.629Z,30.7419
2023-04-18T06:56:39.565Z,30.7106
2023-04-18T06:57:43.463Z,31.1295
2023-04-18T06:58:47.370Z,31.2124
2023-04-18T06:59:51.261Z,31.3694
2023-04-18T07:00:55.190Z,31.5275
2023-04-18T07:01:59.087Z,31.3147
2023-04-18T07:03:03.101Z,31.2061
2023-04-18T07:04:07.166Z,31.5675
2023-04-18T07:05:11.106Z,31.8117
2023-04-18T07:06:14.995Z,31.8651
2023-04-18T07:07:18.934Z,31.7919
2023-04-18T07:08:22.906Z,31.9107
2023-04-18T07:09:26.860Z,31.4653
2023-04-18T07:10:30.774Z,31.4178
2023-04-18T07:11:34.926Z,31.3750
2023-04-18T07:12:38.833Z,31.6264
2023-04-18T07:13:42.973Z,31.6854
2023-04-18T07:14:46.918Z,31.3052
2023-04-18T07:15:50.813Z,31.0464
2023-04-18T07:16:54.774Z,31.5161
2023-04-18T07:17:58.803Z,31.3779
2023-04-18T07:19:02.704Z,31.6349
2023-04-18T07:20:06.619Z,31.5028
2023-04-18T07:21:10.610Z,31.7158
2023-04-18T07:22:14.531Z,31.3946
2023-04-18T07:23:18.456Z,31.3349
2023-04-18T07:24:22.392Z,31.5770
2023-04-18T07:25:26.310Z,31.7680
2023-04-18T07:26:30.241Z,32.0053
2023-04-18T07:27:34.151Z,31.8017
2023-04-18T07:28:38.401Z,31.7668
2023-04-18T07:29:42.285Z,31.7083
2023-04-18T07:30:46.294Z,31.6566
2023-04-18T07:31:50.216Z,31.6765
2023-04-18T07:32:54.189Z,31.4226
2023-04-18T07:33:58.130Z,31.8353
2023-04-18T07:35:02.157Z,31.7299
2023-04-18T07:36:06.088Z,31.2000
2023-04-18T07:37:10.015Z,31.8540
2023-04-18T07:38:13.963Z,31.7167
2023-04-18T07:39:17.858Z,31.8773
2023-04-18T07:40:21.837Z,31.5170
2023-04-18T07:41:25.730Z,31.7256
2023-04-18T07:42:29.642Z,31.6703
2023-04-18T07:43:33.546Z,31.7069
2023-04-18T07:44:37.509Z,31.6438
2023-04-18T07:45:41.408Z,31.5077
2023-04-18T07:46:45.411Z,31.6137
2023-04-18T07:47:49.388Z,31.8367
2023-04-18T07:48:53.282Z,31.9689
2023-04-18T07:49:57.269Z,31.6508
2023-04-18T07:51:01.187Z,31.5792
2023-04-18T07:52:05.123Z,31.4807
2023-04-18T07:53:09.292Z,31.5328
2023-04-18T07:54:13.242Z,31.5814
2023-04-18T07:55:17.170Z,31.5643
2023-04-18T07:56:21.097Z,31.5061
2023-04-18T07:57:25.019Z,31.3897
2023-04-18T07:58:28.956Z,31.7554
2023-04-18T07:59:32.871Z,31.4115
2023-04-18T08:00:36.827Z,30.9759
2023-04-18T08:01:40.799Z,31.4828
2023-04-18T08:02:44.814Z,31.6691
2023-04-18T08:03:48.868Z,31.4729
2023-04-18T08:04:53.054Z,31.5962
2023-04-18T08:05:57.126Z,31.6241
2023-04-18T08:07:01.070Z,31.5746
2023-04-18T08:08:05.014Z,31.4720
2023-04-18T08:09:08.919Z,31.4097
2023-04-18T08:10:13.107Z,31.1790
2023-04-18T08:11:17.010Z,31.2030
2023-04-18T08:12:20.940Z,31.3976
2023-04-18T08:13:24.873Z,31.3978
2023-04-18T08:14:28.848Z,31.4920
2023-04-18T08:15:33.050Z,31.4159
2023-04-18T08:16:37.002Z,31.5066
2023-04-18T08:17:40.979Z,31.3967
2023-04-18T08:18:44.906Z,31.3021
2023-04-18T08:19:48.859Z,31.3639
2023-04-18T08:20:52.817Z,31.4081
2023-04-18T08:21:56.886Z,31.3718
2023-04-18T08:23:07.323Z,31.4072
2023-04-18T08:24:05.406Z,31.1866
2023-04-18T08:25:09.505Z,31.4109
2023-04-18T08:26:13.426Z,31.5016
2023-04-18T08:27:17.367Z,31.2841
2023-04-18T08:28:21.536Z,31.3384
2023-04-18T08:29:25.446Z,31.3807
2023-04-18T08:30:29.429Z,31.2814
2023-04-18T08:31:33.436Z,31.1518
2023-04-18T08:32:37.507Z,31.2071
2023-04-18T08:33:41.453Z,31.2548
2023-04-18T08:34:45.372Z,31.2555
2023-04-18T08:35:49.334Z,31.1834
2023-04-18T08:36:53.312Z,31.1558
2023-04-18T08:37:57.311Z,31.1853
2023-04-18T08:39:01.236Z,31.1721
2023-04-18T08:40:05.207Z,31.1676
2023-04-18T08:41:09.169Z,31.0471
2023-04-18T08:42:13.082Z,31.1035
2023-04-18T08:43:17.048Z,31.1946
2023-04-18T08:44:21.046Z,31.1732
2023-04-18T08:45:25.016Z,31.0616
2023-04-18T08:46:29.261Z,31.1570
2023-04-18T08:47:33.189Z,31.0618
2023-04-18T08:48:37.228Z,31.1755
2023-04-18T08:49:41.161Z,31.2318
2023-04-18T08:50:45.185Z,31.1254
2023-04-18T08:51:49.057Z,31.1375
2023-04-18T08:52:52.993Z,31.2785
2023-04-18T08:53:56.925Z,31.2733
2023-04-18T08:55:01.006Z,31.2344
2023-04-18T08:56:04.935Z,31.1750
2023-04-18T08:57:09.009Z,31.1822
2023-04-18T08:58:13.015Z,31.1895
2023-04-18T08:59:16.993Z,31.3107
2023-04-18T09:00:21.005Z,31.2120
2023-04-18T09:01:24.966Z,31.0862
2023-04-18T09:02:28.920Z,31.0280
2023-04-18T09:03:32.870Z,31.0439
2023-04-18T09:04:36.959Z,30.9525
2023-04-18T09:05:41.186Z,30.9441
2023-04-18T09:06:46.050Z,30.9831
2023-04-18T09:07:49.951Z,31.0675
2023-04-18T09:08:53.845Z,31.0410
2023-04-18T09:09:53.969Z,30.9434
2023-04-18T09:10:57.860Z,30.9331
2023-04-18T09:12:01.790Z,30.9166
2023-04-18T09:13:05.699Z,30.8250
2023-04-18T09:14:09.629Z,30.9127
2023-04-18T09:15:13.606Z,30.8584
2023-04-18T09:16:17.561Z,30.8576
2023-04-18T09:17:21.522Z,30.9364
2023-04-18T09:18:25.715Z,30.9149
2023-04-18T09:19:29.644Z,30.7808
2023-04-18T09:20:33.585Z,30.9004
2023-04-18T09:21:37.492Z,31.0530
2023-04-18T09:22:41.406Z,30.8891
2023-04-18T09:23:45.336Z,30.8640
2023-04-18T09:24:49.224Z,30.8417
2023-04-18T09:25:53.154Z,30.8903
2023-04-18T09:26:57.098Z,30.9163
2023-04-18T09:28:01.273Z,31.0343
2023-04-18T09:29:05.358Z,30.8285
2023-04-18T09:30:09.272Z,30.7887
2023-04-18T09:31:13.306Z,30.7901
2023-04-18T09:32:17.314Z,30.7673
2023-04-18T09:33:21.211Z,30.8769
2023-04-18T09:34:25.213Z,30.8879
2023-04-18T09:35:29.103Z,30.9719
2023-04-18T09:36:33.105Z,30.7987
2023-04-18T09:37:37.010Z,30.9533
2023-04-18T09:38:41.112Z,30.8334
2023-04-18T09:39:45.146Z,30.8107
2023-04-18T09:40:49.081Z,30.6113
2023-04-18T09:41:52.990Z,30.7491
2023-04-18T09:42:56.961Z,30.7039
2023-04-18T09:44:00.875Z,30.6248
2023-04-18T09:45:05.121Z,30.7240
2023-04-18T09:46:09.079Z,30.8488
2023-04-18T09:47:13.080Z,30.7831
2023-04-18T09:48:16.973Z,30.8456
2023-04-18T09:49:20.884Z,30.8008
2023-04-18T09:50:24.810Z,30.8290
2023-04-18T09:51:28.783Z,30.8781
2023-04-18T09:52:32.859Z,30.6675
2023-04-18T09:53:36.786Z,30.4248
2023-04-18T09:54:40.666Z,30.4981
2023-04-18T09:55:44.596Z,30.4642
2023-04-18T09:56:48.523Z,30.4932
2023-04-18T09:57:52.704Z,30.3973
2023-04-18T09:58:56.660Z,30.6990
2023-04-18T10:00:00.592Z,30.6829
2023-04-18T10:01:04.513Z,30.4151
2023-04-18T10:02:08.582Z,30.4091
2023-04-18T10:03:12.603Z,30.3816
2023-04-18T10:04:16.971Z,30.3819
2023-04-18T10:05:21.434Z,30.5878
2023-04-18T10:06:25.413Z,30.5973
2023-04-18T10:07:29.306Z,30.5559
2023-04-18T10:08:33.209Z,30.4652
2023-04-18T10:09:37.126Z,30.4834
2023-04-18T10:10:41.096Z,30.8252
2023-04-18T10:11:44.988Z,30.8528
2023-04-18T10:12:48.989Z,30.9817
2023-04-18T10:13:53.035Z,31.2716
2023-04-18T10:14:56.970Z,31.1902
2023-04-18T10:16:00.884Z,31.1982
2023-04-18T10:17:04.767Z,31.2304
2023-04-18T10:18:08.727Z,31.0719
2023-04-18T10:19:13.109Z,31.0303
2023-04-18T10:20:17.226Z,31.0940
2023-04-18T10:21:21.181Z,31.1319
2023-04-18T10:22:25.116Z,31.2490
2023-04-18T10:23:29.055Z,31.1230
2023-04-18T10:24:33.092Z,31.0318
2023-04-18T10:25:37.110Z,31.0492
2023-04-18T10:26:41.061Z,31.1624
2023-04-18T10:27:45.335Z,31.2650
2023-04-18T10:28:49.295Z,31.2803
2023-04-18T10:29:53.275Z,31.4791
2023-04-18T10:30:57.404Z,31.5553
2023-04-18T10:32:01.393Z,31.3199
2023-04-18T10:33:08.494Z,31.5118
2023-04-18T10:34:09.847Z,31.5887
2023-04-18T10:35:13.832Z,31.7374
2023-04-18T10:36:17.805Z,31.7238
2023-04-18T10:37:21.808Z,31.5791
2023-04-18T10:38:25.834Z,31.6079
2023-04-18T10:39:29.777Z,31.4655
2023-04-18T10:40:33.781Z,31.1200
2023-04-18T10:41:37.754Z,31.6504
2023-04-18T10:42:41.748Z,31.4447
2023-04-18T10:43:45.648Z,31.3198
2023-04-18T10:44:49.897Z,31.2763
2023-04-18T10:45:53.917Z,31.4437
2023-04-18T10:46:57.864Z,31.3834
2023-04-18T10:47:58.343Z,31.3396
2023-04-18T10:49:02.248Z,31.1671
2023-04-18T10:50:06.968Z,30.8281
2023-04-18T10:51:11.075Z,31.3080
2023-04-18T10:52:15.037Z,31.3138
2023-04-18T10:53:18.986Z,31.0721
2023-04-18T10:54:22.975Z,30.9414
2023-04-18T10:55:27.103Z,31.1049
2023-04-18T10:56:31.115Z,31.0736
2023-04-18T10:57:35.247Z,30.8533
2023-04-18T10:58:39.147Z,30.9090
2023-04-18T10:59:43.102Z,30.7475
2023-04-18T11:00:47.121Z,30.8328
2023-04-18T11:01:51.026Z,30.7735
2023-04-18T11:02:55.190Z,30.8511
2023-04-18T11:03:59.297Z,31.0739
2023-04-18T11:05:03.299Z,31.3465
2023-04-18T11:06:07.239Z,31.5540
2023-04-18T11:07:11.788Z,30.9503
2023-04-18T11:08:15.838Z,31.3691
2023-04-18T11:09:19.795Z,31.2645
2023-04-18T11:10:23.902Z,31.0613
2023-04-18T11:11:27.828Z,31.1372
2023-04-18T11:12:31.782Z,31.2731
2023-04-18T11:13:35.771Z,31.2290
2023-04-18T11:14:39.824Z,31.2552
2023-04-18T11:15:43.783Z,31.2256
2023-04-18T11:16:47.858Z,31.2456
2023-04-18T11:17:51.907Z,31.4392
2023-04-18T11:18:55.888Z,31.2683
2023-04-18T11:19:59.927Z,31.2792
2023-04-18T11:21:03.951Z,31.2936
2023-04-18T11:22:07.906Z,31.0627
2023-04-18T11:23:11.944Z,31.1991
2023-04-18T11:24:16.039Z,31.2327
2023-04-18T11:25:20.147Z,31.4262
2023-04-18T11:26:24.217Z,31.3953
2023-04-18T11:27:28.163Z,31.4164
2023-04-18T11:28:32.167Z,31.6308
2023-04-18T11:29:36.468Z,31.8981
2023-04-18T11:30:40.361Z,31.9309
2023-04-18T11:31:44.378Z,31.8094
2023-04-18T11:32:48.354Z,31.6364
2023-04-18T11:33:52.287Z,31.8314
2023-04-18T11:34:56.268Z,31.8746
2023-04-18T11:36:00.288Z,31.7252
2023-04-18T11:37:04.213Z,31.6617
2023-04-18T11:38:08.157Z,31.6682
2023-04-18T11:39:12.117Z,31.2719
2023-04-18T11:40:16.277Z,31.4201
2023-04-18T11:41:20.242Z,31.5306
2023-04-18T11:42:24.457Z,31.4830
2023-04-18T11:43:28.352Z,31.0881
2023-04-18T11:44:33.764Z,31.0612
2023-04-18T11:45:34.096Z,31.0283
2023-04-18T11:46:38.368Z,30.9516
2023-04-18T11:47:42.579Z,31.0206
2023-04-18T11:48:46.499Z,31.0922
2023-04-18T11:49:50.509Z,31.2158
2023-04-18T11:50:54.465Z,31.2462
2023-04-18T11:51:58.627Z,31.1413
2023-04-18T11:53:02.537Z,31.1888
2023-04-18T11:54:06.465Z,31.1521
2023-04-18T11:55:10.660Z,31.0303
2023-04-18T11:56:14.585Z,31.1668
2023-04-18T11:57:18.523Z,31.4356
2023-04-18T11:58:22.461Z,31.0486
2023-04-18T11:59:26.400Z,31.0327
2023-04-18T12:00:30.383Z,30.8464
2023-04-18T12:01:34.281Z,30.8163
2023-04-18T12:02:38.472Z,30.9213
2023-04-18T12:03:42.669Z,31.0026
2023-04-18T12:04:47.037Z,30.9985
2023-04-18T12:05:51.370Z,30.9377
2023-04-18T12:06:55.393Z,30.9826
2023-04-18T12:07:59.291Z,31.0183
2023-04-18T12:09:03.193Z,31.0600
2023-04-18T12:10:07.370Z,31.0065
2023-04-18T12:11:11.320Z,30.9831
2023-04-18T12:12:15.275Z,30.9297
2023-04-18T12:13:19.238Z,31.0463
2023-04-18T12:14:23.292Z,30.9331
2023-04-18T12:15:27.304Z,30.7961
2023-04-18T12:16:31.295Z,30.7209
2023-04-18T12:17:35.275Z,30.7002
2023-04-18T12:18:39.271Z,30.8142
2023-04-18T12:19:43.132Z,30.7538
2023-04-18T12:20:47.105Z,30.7158
2023-04-18T12:21:51.050Z,30.8670
2023-04-18T12:22:55.052Z,30.7961
2023-04-18T12:23:58.979Z,30.8037
2023-04-18T12:25:02.885Z,30.6605
2023-04-18T12:26:06.816Z,30.8428
2023-04-18T12:27:11.025Z,30.5710
2023-04-18T12:28:14.975Z,30.7659
2023-04-18T12:29:19.292Z,30.8376
2023-04-18T12:30:23.187Z,30.8483
2023-04-18T12:31:27.214Z,30.8014
2023-04-18T12:32:31.237Z,30.7121
2023-04-18T12:33:35.238Z,30.6569
2023-04-18T12:34:39.197Z,30.7134
2023-04-18T12:35:43.116Z,30.6482
2023-04-18T12:36:47.346Z,30.5677
2023-04-18T12:37:51.245Z,30.8206
2023-04-18T12:38:55.201Z,30.7501
2023-04-18T12:39:59.163Z,30.4942
2023-04-18T12:41:03.112Z,30.3538
2023-04-18T12:42:07.041Z,30.3883
2023-04-18T12:43:11.001Z,30.3542
2023-04-18T12:44:15.135Z,30.5092
2023-04-18T12:45:19.105Z,30.3627
2023-04-18T12:46:23.129Z,30.2640
2023-04-18T12:47:27.130Z,30.2877
2023-04-18T12:48:31.057Z,30.4717
2023-04-18T12:49:34.982Z,30.3010
2023-04-18T12:50:38.915Z,30.1202
2023-04-18T12:51:42.796Z,30.3383
2023-04-18T12:52:46.732Z,30.2675
2023-04-18T12:53:50.642Z,30.2020